Latest Coastal Weather Observations for Neptune Island

IDT60701

Issued at 8:45 pm EST Tuesday 30 September 2014 (issued every 10 minutes, with the page automatically refreshed every 10 minutes)

About coastal observations | Map of coastal stations | Coastal observations for TAS | Marine services | Other Formats
Station Details ID: 018115 Name: NEPTUNE ISLAND Lat: -35.34 Lon: 136.12 Height: 32.0 m
Data from the previous 72 hours. | See also: Recent months at Neptune Island
Date/Time
EST
Temp

°C
Wind Pressure Rain
since 9am
mm
Weather Cloud Vis
km
Sea
Height
m
Swell
Dir
 
Speed
knots
Gust
knots
hPa Trend Height
m
Period
s
Dir
30/08:30pm 13.9 SW 23 27 1021.4 - 0.4 - - - - - - -
30/08:00pm 14.0 SW 27 31 1020.8 - 0.4 - - - - - - -
30/07:30pm 14.0 SW 27 31 1020.2 - 0.4 - - - - - - -
30/07:00pm 14.3 SW 25 29 1019.6 - 0.4 - - - - - - -
30/06:30pm 14.6 SW 26 32 1019.2 - 0.4 - - - - - - -
30/06:00pm 14.8 SW 29 33 1018.4 - 0.4 - - - - - - -
30/05:30pm 15.1 SW 27 32 1018.0 - 0.4 - - - - - - -
30/05:00pm 14.5 SW 25 31 1017.7 - 0.4 - - - - - - -
30/04:30pm 15.5 WSW 28 32 1017.2 - 0.4 - - - - - - -
30/04:00pm 15.6 WSW 29 33 1016.9 - 0.4 - - - - - - -
30/03:30pm 15.7 WSW 28 33 1016.6 - 0.4 - - - - - - -
30/03:00pm 15.9 WSW 27 32 1016.3 - 0.4 - - - - - - -
30/02:30pm 16.4 WSW 24 28 1016.3 - 0.4 - - - - - - -
30/02:00pm 16.0 WSW 26 30 1015.8 - 0.4 - - - - - - -
30/01:30pm 16.0 WSW 27 32 1015.6 - 0.4 - - - - - - -
30/01:00pm 15.9 WSW 31 35 1015.1 - 0.4 - - - - - - -
30/12:30pm 15.7 WSW 32 38 1014.8 - 0.4 - - - - - - -
30/12:00pm 15.3 WSW 29 34 1014.5 - 0.4 - - - - - - -
30/11:30am 14.3 WSW 31 37 1014.0 - 0.4 - - - - - - -
30/11:00am 15.0 WSW 28 36 1013.8 - 0.0 - - - - - - -
30/10:30am 16.4 W 31 37 1013.3 - 0.0 - - - - - - -
30/10:00am 16.4 W 28 35 1012.9 - 0.0 - - - - - - -
30/09:30am 16.1 W 29 34 1012.5 - - - - - - - - -
30/09:00am 15.9 W 30 38 1011.9 - - - - - - - - -
30/08:30am 16.0 W 27 34 1011.7 - - - - - - - - -
30/08:16am 15.8 W 27 37 1011.7 - - - - - - - - -
30/08:00am 15.7 W 26 33 1011.5 - - - - - - - - -
30/07:30am 15.6 W 28 33 1011.1 - - - - - - - - -
30/07:00am 15.5 W 30 40 1011.1 - - - - - - - - -
30/06:53am 15.4 W 29 40 1010.8 - - - - - - - - -
30/06:30am 15.7 W 27 35 1010.8 - - - - - - - - -
30/06:00am 15.7 W 25 31 1009.9 - - - - - - - - -
30/05:30am 15.8 WNW 23 28 1009.7 - - - - - - - - -
30/05:00am 15.8 WNW 23 28 1009.6 - - - - - - - - -
30/04:30am 15.7 WNW 22 26 1009.5 - - - - - - - - -
30/04:00am 15.0 NW 19 23 1009.8 - - - - - - - - -
30/03:30am 15.2 NW 18 23 1009.8 - 0.0 - - - - - - -
30/03:00am 15.1 NNW 17 20 1009.7 - 0.0 - - - - - - -
30/02:30am 15.0 NW 16 19 1010.1 - 0.0 - - - - - - -
30/02:00am 14.9 NW 15 17 1010.4 - 0.0 - - - - - - -
30/01:30am 14.9 NNW 15 18 1010.6 - 0.0 - - - - - - -
30/01:00am 14.9 NNW 16 19 1011.0 - 0.0 - - - - - - -
30/12:30am 15.1 NW 15 18 1011.5 - 0.0 - - - - - - -
30/12:00am 15.4 NW 14 17 1012.2 - 0.0 - - - - - - -
 
Date/Time
EST
Temp

°C
Wind Pressure Rain
since 9am
mm
Weather Cloud Vis
km
Sea
Height
m
Swell
Dir
 
Speed
knots
Gust
knots
hPa Trend Height
m
Period
s
Dir
29/11:30pm 15.4 NW 15 18 1012.6 - 0.0 - - - - - - -
29/11:00pm 15.6 NW 15 18 1013.0 - 0.0 - - - - - - -
29/10:30pm 15.5 WNW 16 20 1013.4 - 0.0 - - - - - - -
29/10:00pm 15.5 WNW 17 20 1013.5 - 0.0 - - - - - - -
29/09:30pm 15.5 WNW 19 23 1013.4 - 0.0 - - - - - - -
29/09:00pm 15.6 WNW 21 25 1013.3 - 0.0 - - - - - - -
29/08:30pm 15.7 WNW 21 26 1012.9 - 0.0 - - - - - - -
29/08:00pm 15.8 WNW 21 26 1012.8 - 0.0 - - - - - - -
29/07:30pm 15.7 WNW 21 25 1012.4 - 0.0 - - - - - - -
29/07:00pm 15.8 WNW 20 25 1012.4 - 0.0 - - - - - - -
29/06:30pm 16.0 WNW 20 24 1012.5 - 0.0 - - - - - - -
29/06:00pm 16.3 WNW 21 25 1012.4 - 0.0 - - - - - - -
29/05:30pm 16.6 WNW 20 24 1012.3 - 0.0 - - - - - - -
29/05:00pm 16.8 WNW 21 25 1012.2 - 0.0 - - - - - - -
29/04:30pm 17.1 WNW 21 25 1012.3 - 0.0 - - - - - - -
29/04:00pm 17.0 WNW 18 21 1012.1 - 0.0 - - - - - - -
29/03:30pm 17.4 WNW 16 19 1012.0 - 0.0 - - - - - - -
29/03:00pm 17.8 W 16 19 1012.4 - 0.0 - - - - - - -
29/02:30pm 17.4 W 16 19 1012.6 - 0.0 - - - - - - -
29/02:00pm 17.5 W 15 19 1012.8 - 0.0 - - - - - - -
29/01:30pm 17.3 W 17 20 1013.1 - 0.0 - - - - - - -
29/01:00pm 17.2 WNW 15 18 1013.7 - 0.0 - - - - - - -
29/12:30pm 16.8 WNW 13 16 1014.0 - 0.0 - - - - - - -
29/12:00pm 16.1 W 16 18 1014.2 - 0.0 - - - - - - -
29/11:30am 16.7 NW 10 14 1014.4 - 0.0 - - - - - - -
29/11:00am 16.7 W 10 11 1014.3 - 0.0 - - - - - - -
29/10:30am 16.1 W 14 18 1014.5 - 0.0 - - - - - - -
29/10:00am 15.9 W 14 17 1014.5 - 0.0 - - - - - - -
29/09:30am 15.2 W 9 11 1014.4 - 0.0 - - - - - - -
29/09:00am 15.6 WSW 8 9 1014.2 - 0.0 - - - - - - -
29/08:30am 15.1 WSW 11 13 1014.0 - 0.0 - - - - - - -
29/08:00am 14.7 WSW 12 14 1013.6 - 0.0 - - - - - - -
29/07:30am 14.4 WSW 14 17 1013.4 - 0.0 - - - - - - -
29/07:00am 14.7 WSW 13 15 1013.2 - 0.0 - - - - - - -
29/06:30am 14.6 WSW 15 18 1012.9 - 0.0 - - - - - - -
29/06:00am 14.4 WSW 17 19 1012.7 - 0.0 - - - - - - -
29/05:30am 14.7 W 18 21 1012.5 - 0.0 - - - - - - -
29/05:00am 14.8 W 19 23 1012.4 - 0.0 - - - - - - -
29/04:30am 15.1 W 19 22 1012.4 - 0.0 - - - - - - -
29/04:00am 15.1 W 20 24 1012.4 - 0.0 - - - - - - -
29/03:30am 15.2 W 22 26 1012.6 - 0.0 - - - - - - -
29/03:00am 15.3 W 23 29 1012.8 - 0.0 - - - - - - -
29/02:30am 15.5 W 23 29 1012.9 - 0.0 - - - - - - -
29/02:00am 15.5 W 23 27 1012.8 - 0.0 - - - - - - -
29/01:30am 15.4 WNW 23 29 1012.7 - 0.0 - - - - - - -
29/01:00am 15.3 W 23 27 1012.8 - 0.0 - - - - - - -
29/12:30am 15.2 WNW 22 27 1012.9 - 0.0 - - - - - - -
29/12:00am 15.3 W 22 27 1012.9 - 0.0 - - - - - - -
 
Date/Time
EST
Temp

°C
Wind Pressure Rain
since 9am
mm
Weather Cloud Vis
km
Sea
Height
m
Swell
Dir
 
Speed
knots
Gust
knots
hPa Trend Height
m
Period
s
Dir
28/11:30pm 15.7 W 23 27 1013.1 - 0.0 - - - - - - -
28/11:00pm 15.6 W 25 31 1013.0 - 0.0 - - - - - - -
28/10:30pm 15.5 W 27 32 1012.8 - 0.0 - - - - - - -
28/10:00pm 15.5 W 28 33 1012.6 - 0.0 - - - - - - -
28/09:30pm 15.7 W 28 35 1012.5 - 0.0 - - - - - - -
28/09:00pm 15.8 W 29 35 1012.1 - 0.0 - - - - - - -
28/08:30pm 15.8 W 28 34 1011.6 - 0.0 - - - - - - -
28/08:00pm 15.8 WNW 25 32 1011.2 - 0.0 - - - - - - -
28/07:30pm 15.7 W 26 33 1010.8 - 0.0 - - - - - - -
28/07:00pm 15.7 W 27 32 1010.3 - 0.0 - - - - - - -
28/06:30pm 16.1 W 28 32 1010.0 - 0.0 - - - - - - -
28/06:00pm 16.3 W 29 36 1009.3 - 0.0 - - - - - - -
28/05:30pm 16.5 W 29 35 1009.0 - 0.0 - - - - - - -
28/05:00pm 17.1 W 27 32 1008.6 - 0.0 - - - - - - -
28/04:37pm 17.0 W 29 39 1008.0 - 0.0 - - - - - - -
28/04:30pm 17.2 W 28 33 1008.3 - 0.0 - - - - - - -
28/04:00pm 17.2 W 29 35 1008.0 - 0.0 - - - - - - -
28/03:30pm 17.5 W 28 34 1007.9 - 0.0 - - - - - - -
28/03:00pm 17.5 W 27 34 1007.8 - 0.0 - - - - - - -
28/02:30pm 17.7 W 29 34 1007.7 - 0.0 - - - - - - -
28/02:00pm 18.0 W 26 31 1007.7 - 0.0 - - - - - - -
28/01:30pm 17.9 W 25 29 1007.5 - 0.0 - - - - - - -
28/01:00pm 18.1 W 23 27 1007.5 - 0.0 - - - - - - -
28/12:30pm 18.6 W 21 24 1007.3 - 0.0 - - - - - - -
28/12:00pm 18.5 W 16 20 1007.1 - 0.0 - - - - - - -
28/11:30am 18.4 WNW 15 17 1007.0 - 0.0 - - - - - - -
28/11:00am 18.9 NW 12 15 1006.4 - 0.0 - - - - - - -
28/10:30am 18.3 NW 9 12 1006.1 - 0.0 - - - - - - -
28/10:00am 18.3 N 7 9 1005.5 - 0.0 - - - - - - -
28/09:30am 18.6 SW 1 4 1005.8 - - - - - - - - -
28/09:00am 17.6 WSW 8 10 1006.2 - - - - - - - - -
28/08:30am 17.9 W 17 21 1005.8 - - - - - - - - -
28/08:00am 18.3 NW 19 21 1005.3 - - - - - - - - -
28/07:30am 18.5 WNW 21 25 1005.2 - - - - - - - - -
28/07:00am 19.0 WNW 24 28 1005.0 - - - - - - - - -
28/06:30am 20.1 WNW 26 32 1004.0 - - - - - - - - -
28/06:23am 19.8 NW 25 28 1003.9 - - - - - - - - -
28/06:00am 19.9 N 25 29 1003.1 - - - - - - - - -
28/05:47am 20.1 N 30 37 1002.0 - - - - - - - - -
28/05:30am 19.9 N 34 40 999.8 - - - - - - - - -
28/05:00am 20.1 N 35 40 1000.0 - - - - - - - - -
28/04:30am 19.9 N 32 37 1000.7 - - - - - - - - -
28/04:00am 19.8 N 32 36 1001.1 - - - - - - - - -
28/03:30am 19.9 N 32 36 1001.6 - 0.0 - - - - - - -
28/03:00am 20.2 N 33 39 1002.3 - 0.0 - - - - - - -
28/02:30am 20.6 N 32 37 1002.8 - 0.0 - - - - - - -
28/02:00am 20.5 N 31 37 1003.5 - 0.0 - - - - - - -
28/01:30am 20.1 N 32 35 1004.1 - 0.0 - - - - - - -
28/01:00am 19.0 N 26 30 1005.1 - 0.0 - - - - - - -
28/12:30am 18.8 N 26 29 1005.5 - 0.0 - - - - - - -
28/12:00am 19.4 N 26 29 1005.9 - 0.0 - - - - - - -
 
Date/Time
EST
Temp

°C
Wind Pressure Rain
since 9am
mm
Weather Cloud Vis
km
Sea
Height
m
Swell
Dir
 
Speed
knots
Gust
knots
hPa Trend Height
m
Period
s
Dir
27/11:30pm 21.3 N 29 33 1006.0 - 0.0 - - - - - - -
27/11:00pm 19.8 N 24 28 1006.6 - 0.0 - - - - - - -
27/10:30pm 19.0 N 21 22 1007.1 - 0.0 - - - - - - -
27/10:00pm 17.9 N 19 21 1007.5 - 0.0 - - - - - - -
27/09:30pm 17.7 N 18 20 1007.9 - 0.0 - - - - - - -

Other Formats:

Comma delimited format used in spreadsheet applications
http://www.bom.gov.au/fwo/IDT60701/IDT60701.94804.axf

JavaScript Object Notation format (JSON) in row-major order
http://www.bom.gov.au/fwo/IDT60701/IDT60701.94804.json